sensor_id;sensor_type;location;lat;lon;timestamp;P1;durP1;ratioP1;P2;durP2;ratioP2
1993;SDS011;998;49.906;10.908;2023-03-01T00:01:34;12.53;;;9.73;;
1993;SDS011;998;49.906;10.908;2023-03-01T00:04:01;13.23;;;8.40;;
1993;SDS011;998;49.906;10.908;2023-03-01T00:06:30;16.00;;;9.50;;
1993;SDS011;998;49.906;10.908;2023-03-01T00:08:57;15.53;;;9.10;;
1993;SDS011;998;49.906;10.908;2023-03-01T00:11:25;12.53;;;9.20;;
1993;SDS011;998;49.906;10.908;2023-03-01T00:13:55;15.90;;;8.33;;
1993;SDS011;998;49.906;10.908;2023-03-01T00:16:24;14.93;;;9.33;;
1993;SDS011;998;49.906;10.908;2023-03-01T00:18:53;13.27;;;8.80;;
1993;SDS011;998;49.906;10.908;2023-03-01T00:21:21;15.27;;;8.60;;
1993;SDS011;998;49.906;10.908;2023-03-01T00:23:51;16.20;;;9.30;;
1993;SDS011;998;49.906;10.908;2023-03-01T00:26:19;16.00;;;9.53;;
1993;SDS011;998;49.906;10.908;2023-03-01T00:28:51;16.43;;;9.53;;
1993;SDS011;998;49.906;10.908;2023-03-01T00:31:19;16.10;;;10.10;;
1993;SDS011;998;49.906;10.908;2023-03-01T00:33:51;18.30;;;10.33;;
1993;SDS011;998;49.906;10.908;2023-03-01T00:36:22;19.73;;;10.00;;
1993;SDS011;998;49.906;10.908;2023-03-01T00:38:52;16.40;;;9.10;;
1993;SDS011;998;49.906;10.908;2023-03-01T00:41:19;17.43;;;9.30;;
1993;SDS011;998;49.906;10.908;2023-03-01T00:43:48;13.13;;;9.13;;
1993;SDS011;998;49.906;10.908;2023-03-01T00:46:17;15.60;;;9.93;;
1993;SDS011;998;49.906;10.908;2023-03-01T00:48:46;16.40;;;9.60;;
1993;SDS011;998;49.906;10.908;2023-03-01T00:51:14;14.37;;;9.53;;
1993;SDS011;998;49.906;10.908;2023-03-01T00:53:42;18.50;;;9.33;;
1993;SDS011;998;49.906;10.908;2023-03-01T00:56:12;13.70;;;8.40;;
1993;SDS011;998;49.906;10.908;2023-03-01T00:58:40;18.63;;;9.50;;
1993;SDS011;998;49.906;10.908;2023-03-01T01:01:09;16.30;;;9.53;;
1993;SDS011;998;49.906;10.908;2023-03-01T01:03:45;13.07;;;8.60;;
1993;SDS011;998;49.906;10.908;2023-03-01T01:06:14;16.90;;;10.47;;
1993;SDS011;998;49.906;10.908;2023-03-01T01:08:42;15.60;;;8.77;;
1993;SDS011;998;49.906;10.908;2023-03-01T01:11:11;14.37;;;8.80;;
1993;SDS011;998;49.906;10.908;2023-03-01T01:13:39;12.93;;;8.67;;
1993;SDS011;998;49.906;10.908;2023-03-01T01:16:07;18.73;;;9.47;;
1993;SDS011;998;49.906;10.908;2023-03-01T01:18:35;19.30;;;11.13;;
1993;SDS011;998;49.906;10.908;2023-03-01T01:21:03;16.37;;;8.47;;
1993;SDS011;998;49.906;10.908;2023-03-01T01:23:32;12.73;;;9.00;;
1993;SDS011;998;49.906;10.908;2023-03-01T01:26:03;14.37;;;9.57;;
1993;SDS011;998;49.906;10.908;2023-03-01T01:28:33;16.63;;;8.07;;
1993;SDS011;998;49.906;10.908;2023-03-01T01:31:00;19.10;;;9.60;;
1993;SDS011;998;49.906;10.908;2023-03-01T01:33:28;15.00;;;8.40;;
1993;SDS011;998;49.906;10.908;2023-03-01T01:35:55;15.10;;;9.40;;
1993;SDS011;998;49.906;10.908;2023-03-01T01:38:23;12.83;;;8.20;;
1993;SDS011;998;49.906;10.908;2023-03-01T01:40:51;16.17;;;10.17;;
1993;SDS011;998;49.906;10.908;2023-03-01T01:43:20;13.07;;;8.50;;
1993;SDS011;998;49.906;10.908;2023-03-01T01:45:50;15.47;;;9.50;;
1993;SDS011;998;49.906;10.908;2023-03-01T01:48:22;17.80;;;8.90;;
1993;SDS011;998;49.906;10.908;2023-03-01T01:51:01;13.07;;;9.03;;
1993;SDS011;998;49.906;10.908;2023-03-01T01:53:29;14.37;;;9.37;;
1993;SDS011;998;49.906;10.908;2023-03-01T01:55:57;19.50;;;8.97;;
1993;SDS011;998;49.906;10.908;2023-03-01T01:58:27;21.80;;;10.00;;
1993;SDS011;998;49.906;10.908;2023-03-01T02:00:58;15.27;;;9.37;;
1993;SDS011;998;49.906;10.908;2023-03-01T02:03:27;16.03;;;9.10;;
1993;SDS011;998;49.906;10.908;2023-03-01T02:06:00;13.10;;;8.00;;
1993;SDS011;998;49.906;10.908;2023-03-01T02:08:33;14.00;;;9.37;;
1993;SDS011;998;49.906;10.908;2023-03-01T02:11:04;22.13;;;9.77;;
1993;SDS011;998;49.906;10.908;2023-03-01T02:13:33;16.80;;;8.60;;
1993;SDS011;998;49.906;10.908;2023-03-01T02:16:04;17.40;;;8.90;;
1993;SDS011;998;49.906;10.908;2023-03-01T02:18:34;16.80;;;9.40;;
1993;SDS011;998;49.906;10.908;2023-03-01T02:21:06;16.57;;;10.03;;
1993;SDS011;998;49.906;10.908;2023-03-01T02:23:41;25.10;;;12.80;;
1993;SDS011;998;49.906;10.908;2023-03-01T02:26:11;20.43;;;11.00;;
1993;SDS011;998;49.906;10.908;2023-03-01T02:28:46;17.83;;;9.90;;
1993;SDS011;998;49.906;10.908;2023-03-01T02:31:14;17.80;;;10.27;;
1993;SDS011;998;49.906;10.908;2023-03-01T02:34:01;16.03;;;9.57;;
1993;SDS011;998;49.906;10.908;2023-03-01T02:36:31;14.30;;;8.63;;
1993;SDS011;998;49.906;10.908;2023-03-01T02:39:04;15.57;;;9.13;;
1993;SDS011;998;49.906;10.908;2023-03-01T02:41:34;14.20;;;9.20;;
1993;SDS011;998;49.906;10.908;2023-03-01T02:44:04;14.47;;;9.20;;
1993;SDS011;998;49.906;10.908;2023-03-01T02:46:33;14.07;;;9.00;;
1993;SDS011;998;49.906;10.908;2023-03-01T02:49:16;15.57;;;10.00;;
1993;SDS011;998;49.906;10.908;2023-03-01T02:51:47;17.90;;;9.50;;
1993;SDS011;998;49.906;10.908;2023-03-01T02:54:46;15.00;;;8.93;;
1993;SDS011;998;49.906;10.908;2023-03-01T02:57:17;16.37;;;9.87;;
1993;SDS011;998;49.906;10.908;2023-03-01T02:59:48;12.50;;;8.60;;
1993;SDS011;998;49.906;10.908;2023-03-01T03:02:19;12.07;;;9.03;;
1993;SDS011;998;49.906;10.908;2023-03-01T03:05:01;15.47;;;8.93;;
1993;SDS011;998;49.906;10.908;2023-03-01T03:07:31;14.53;;;9.77;;
1993;SDS011;998;49.906;10.908;2023-03-01T03:09:59;14.27;;;8.23;;
1993;SDS011;998;49.906;10.908;2023-03-01T03:12:27;14.20;;;8.93;;
1993;SDS011;998;49.906;10.908;2023-03-01T03:14:56;21.83;;;10.40;;
1993;SDS011;998;49.906;10.908;2023-03-01T03:17:23;17.63;;;10.37;;
1993;SDS011;998;49.906;10.908;2023-03-01T03:19:51;17.30;;;9.57;;
1993;SDS011;998;49.906;10.908;2023-03-01T03:22:18;14.93;;;9.70;;
1993;SDS011;998;49.906;10.908;2023-03-01T03:24:45;17.37;;;10.07;;
1993;SDS011;998;49.906;10.908;2023-03-01T03:27:13;19.07;;;10.47;;
1993;SDS011;998;49.906;10.908;2023-03-01T03:29:40;20.97;;;10.50;;
1993;SDS011;998;49.906;10.908;2023-03-01T03:32:09;19.00;;;10.40;;
1993;SDS011;998;49.906;10.908;2023-03-01T03:34:36;18.93;;;10.83;;
1993;SDS011;998;49.906;10.908;2023-03-01T03:37:04;18.77;;;10.57;;
1993;SDS011;998;49.906;10.908;2023-03-01T03:39:51;20.57;;;9.90;;
1993;SDS011;998;49.906;10.908;2023-03-01T03:42:20;16.43;;;10.00;;
1993;SDS011;998;49.906;10.908;2023-03-01T03:44:48;12.53;;;8.67;;
1993;SDS011;998;49.906;10.908;2023-03-01T03:47:16;16.43;;;8.60;;
1993;SDS011;998;49.906;10.908;2023-03-01T03:49:44;18.53;;;9.80;;
1993;SDS011;998;49.906;10.908;2023-03-01T03:52:11;15.83;;;9.33;;
1993;SDS011;998;49.906;10.908;2023-03-01T03:54:39;17.33;;;10.23;;
1993;SDS011;998;49.906;10.908;2023-03-01T03:57:07;16.70;;;10.70;;
1993;SDS011;998;49.906;10.908;2023-03-01T03:59:34;17.23;;;9.23;;
1993;SDS011;998;49.906;10.908;2023-03-01T04:02:02;13.53;;;9.47;;
1993;SDS011;998;49.906;10.908;2023-03-01T04:04:30;16.53;;;9.20;;
1993;SDS011;998;49.906;10.908;2023-03-01T04:06:58;15.47;;;9.80;;
1993;SDS011;998;49.906;10.908;2023-03-01T04:09:25;16.70;;;9.53;;
1993;SDS011;998;49.906;10.908;2023-03-01T04:11:55;16.10;;;10.50;;
1993;SDS011;998;49.906;10.908;2023-03-01T04:14:22;16.30;;;9.83;;
1993;SDS011;998;49.906;10.908;2023-03-01T04:16:50;18.83;;;10.53;;
1993;SDS011;998;49.906;10.908;2023-03-01T04:19:17;23.00;;;10.87;;
1993;SDS011;998;49.906;10.908;2023-03-01T04:21:46;15.70;;;10.10;;
1993;SDS011;998;49.906;10.908;2023-03-01T04:24:13;14.70;;;9.40;;
1993;SDS011;998;49.906;10.908;2023-03-01T04:26:41;20.00;;;10.73;;
1993;SDS011;998;49.906;10.908;2023-03-01T04:29:09;16.00;;;10.23;;
1993;SDS011;998;49.906;10.908;2023-03-01T04:31:36;18.23;;;9.30;;
1993;SDS011;998;49.906;10.908;2023-03-01T04:34:03;16.93;;;9.90;;
1993;SDS011;998;49.906;10.908;2023-03-01T04:36:31;18.20;;;10.57;;
1993;SDS011;998;49.906;10.908;2023-03-01T04:39:01;18.13;;;10.13;;
1993;SDS011;998;49.906;10.908;2023-03-01T04:41:37;18.30;;;10.77;;
1993;SDS011;998;49.906;10.908;2023-03-01T04:44:05;13.37;;;10.00;;
1993;SDS011;998;49.906;10.908;2023-03-01T04:46:34;16.57;;;9.87;;
1993;SDS011;998;49.906;10.908;2023-03-01T04:49:02;16.43;;;9.43;;
1993;SDS011;998;49.906;10.908;2023-03-01T04:51:30;18.73;;;10.50;;
1993;SDS011;998;49.906;10.908;2023-03-01T04:53:58;17.47;;;9.27;;
1993;SDS011;998;49.906;10.908;2023-03-01T04:56:27;16.33;;;10.07;;
1993;SDS011;998;49.906;10.908;2023-03-01T04:58:54;19.30;;;10.87;;
1993;SDS011;998;49.906;10.908;2023-03-01T05:01:22;15.27;;;9.10;;
1993;SDS011;998;49.906;10.908;2023-03-01T05:03:49;14.80;;;9.47;;
1993;SDS011;998;49.906;10.908;2023-03-01T05:06:18;18.07;;;10.47;;
1993;SDS011;998;49.906;10.908;2023-03-01T05:08:47;16.43;;;10.40;;
1993;SDS011;998;49.906;10.908;2023-03-01T05:11:14;13.03;;;8.13;;
1993;SDS011;998;49.906;10.908;2023-03-01T05:13:43;15.90;;;8.87;;
1993;SDS011;998;49.906;10.908;2023-03-01T05:16:10;14.93;;;9.40;;
1993;SDS011;998;49.906;10.908;2023-03-01T05:18:38;15.87;;;9.33;;
1993;SDS011;998;49.906;10.908;2023-03-01T05:21:07;17.30;;;10.70;;
1993;SDS011;998;49.906;10.908;2023-03-01T05:23:36;16.27;;;9.10;;
1993;SDS011;998;49.906;10.908;2023-03-01T05:26:04;14.52;;;9.77;;
1993;SDS011;998;49.906;10.908;2023-03-01T05:28:32;16.53;;;10.23;;
1993;SDS011;998;49.906;10.908;2023-03-01T05:31:01;21.10;;;10.67;;
1993;SDS011;998;49.906;10.908;2023-03-01T05:33:35;16.47;;;9.90;;
1993;SDS011;998;49.906;10.908;2023-03-01T05:36:03;14.90;;;9.00;;
1993;SDS011;998;49.906;10.908;2023-03-01T05:38:31;17.90;;;10.27;;
1993;SDS011;998;49.906;10.908;2023-03-01T05:40:59;13.30;;;7.83;;
1993;SDS011;998;49.906;10.908;2023-03-01T05:43:29;16.13;;;10.77;;
1993;SDS011;998;49.906;10.908;2023-03-01T05:45:59;17.63;;;11.27;;
1993;SDS011;998;49.906;10.908;2023-03-01T05:48:28;21.15;;;10.70;;
1993;SDS011;998;49.906;10.908;2023-03-01T05:50:57;15.27;;;9.32;;
1993;SDS011;998;49.906;10.908;2023-03-01T05:53:26;17.60;;;9.73;;
1993;SDS011;998;49.906;10.908;2023-03-01T05:55:54;17.42;;;9.93;;
1993;SDS011;998;49.906;10.908;2023-03-01T05:58:21;16.50;;;9.77;;
1993;SDS011;998;49.906;10.908;2023-03-01T06:00:49;20.73;;;10.47;;
1993;SDS011;998;49.906;10.908;2023-03-01T06:03:18;18.53;;;11.00;;
1993;SDS011;998;49.906;10.908;2023-03-01T06:05:45;13.88;;;10.20;;
1993;SDS011;998;49.906;10.908;2023-03-01T06:08:13;19.63;;;9.60;;
1993;SDS011;998;49.906;10.908;2023-03-01T06:10:40;16.23;;;9.00;;
1993;SDS011;998;49.906;10.908;2023-03-01T06:13:08;18.73;;;10.80;;
1993;SDS011;998;49.906;10.908;2023-03-01T06:15:35;20.77;;;9.52;;
1993;SDS011;998;49.906;10.908;2023-03-01T06:18:03;17.27;;;9.30;;
1993;SDS011;998;49.906;10.908;2023-03-01T06:20:32;15.90;;;9.68;;
1993;SDS011;998;49.906;10.908;2023-03-01T06:22:59;13.60;;;9.02;;
1993;SDS011;998;49.906;10.908;2023-03-01T06:25:26;18.70;;;9.85;;
1993;SDS011;998;49.906;10.908;2023-03-01T06:27:54;18.38;;;9.70;;
1993;SDS011;998;49.906;10.908;2023-03-01T06:30:22;21.23;;;10.88;;
1993;SDS011;998;49.906;10.908;2023-03-01T06:32:51;18.17;;;10.32;;
1993;SDS011;998;49.906;10.908;2023-03-01T06:35:25;20.60;;;10.10;;
1993;SDS011;998;49.906;10.908;2023-03-01T06:37:56;21.83;;;10.63;;
1993;SDS011;998;49.906;10.908;2023-03-01T06:40:25;15.63;;;9.20;;
1993;SDS011;998;49.906;10.908;2023-03-01T06:42:52;18.80;;;10.77;;
1993;SDS011;998;49.906;10.908;2023-03-01T06:45:20;14.80;;;9.35;;
1993;SDS011;998;49.906;10.908;2023-03-01T06:47:48;26.33;;;10.65;;
1993;SDS011;998;49.906;10.908;2023-03-01T06:50:16;20.05;;;10.32;;
1993;SDS011;998;49.906;10.908;2023-03-01T06:52:43;17.38;;;9.75;;
1993;SDS011;998;49.906;10.908;2023-03-01T06:55:12;22.35;;;12.98;;
1993;SDS011;998;49.906;10.908;2023-03-01T06:57:40;20.40;;;11.90;;
1993;SDS011;998;49.906;10.908;2023-03-01T07:00:08;19.90;;;11.05;;
1993;SDS011;998;49.906;10.908;2023-03-01T07:02:36;20.10;;;11.47;;
1993;SDS011;998;49.906;10.908;2023-03-01T07:05:04;19.60;;;12.27;;
1993;SDS011;998;49.906;10.908;2023-03-01T07:07:32;20.50;;;10.45;;
1993;SDS011;998;49.906;10.908;2023-03-01T07:09:59;20.73;;;12.48;;
1993;SDS011;998;49.906;10.908;2023-03-01T07:12:28;17.55;;;10.55;;
1993;SDS011;998;49.906;10.908;2023-03-01T07:14:55;19.20;;;10.67;;
1993;SDS011;998;49.906;10.908;2023-03-01T07:17:23;16.20;;;11.20;;
1993;SDS011;998;49.906;10.908;2023-03-01T07:19:50;20.02;;;11.93;;
1993;SDS011;998;49.906;10.908;2023-03-01T07:22:18;23.95;;;12.80;;
1993;SDS011;998;49.906;10.908;2023-03-01T07:24:45;21.13;;;11.00;;
1993;SDS011;998;49.906;10.908;2023-03-01T07:27:12;22.40;;;11.37;;
1993;SDS011;998;49.906;10.908;2023-03-01T07:29:41;23.20;;;11.13;;
1993;SDS011;998;49.906;10.908;2023-03-01T07:32:08;20.08;;;10.68;;
1993;SDS011;998;49.906;10.908;2023-03-01T07:34:37;22.03;;;12.17;;
1993;SDS011;998;49.906;10.908;2023-03-01T07:37:04;19.93;;;11.17;;
1993;SDS011;998;49.906;10.908;2023-03-01T07:39:31;19.70;;;10.83;;
1993;SDS011;998;49.906;10.908;2023-03-01T07:41:59;19.60;;;10.63;;
1993;SDS011;998;49.906;10.908;2023-03-01T07:44:26;18.80;;;11.10;;
1993;SDS011;998;49.906;10.908;2023-03-01T07:46:56;19.03;;;12.13;;
1993;SDS011;998;49.906;10.908;2023-03-01T07:49:23;20.97;;;10.60;;
1993;SDS011;998;49.906;10.908;2023-03-01T07:51:51;17.57;;;11.33;;
1993;SDS011;998;49.906;10.908;2023-03-01T07:54:18;19.53;;;11.87;;
1993;SDS011;998;49.906;10.908;2023-03-01T07:56:46;20.37;;;11.47;;
1993;SDS011;998;49.906;10.908;2023-03-01T07:59:13;18.00;;;11.00;;
1993;SDS011;998;49.906;10.908;2023-03-01T08:01:40;22.63;;;10.90;;
1993;SDS011;998;49.906;10.908;2023-03-01T08:04:09;19.47;;;11.80;;
1993;SDS011;998;49.906;10.908;2023-03-01T08:06:36;21.53;;;12.43;;
1993;SDS011;998;49.906;10.908;2023-03-01T08:09:04;19.57;;;11.77;;
1993;SDS011;998;49.906;10.908;2023-03-01T08:11:31;21.58;;;12.05;;
1993;SDS011;998;49.906;10.908;2023-03-01T08:13:59;19.87;;;12.40;;
1993;SDS011;998;49.906;10.908;2023-03-01T08:16:26;21.00;;;12.60;;
1993;SDS011;998;49.906;10.908;2023-03-01T08:18:53;24.63;;;13.20;;
1993;SDS011;998;49.906;10.908;2023-03-01T08:21:23;23.63;;;11.93;;
1993;SDS011;998;49.906;10.908;2023-03-01T08:23:50;24.87;;;12.10;;
1993;SDS011;998;49.906;10.908;2023-03-01T08:26:18;24.93;;;14.13;;
1993;SDS011;998;49.906;10.908;2023-03-01T08:28:47;17.10;;;11.60;;
1993;SDS011;998;49.906;10.908;2023-03-01T08:31:16;18.27;;;11.07;;
1993;SDS011;998;49.906;10.908;2023-03-01T08:33:45;19.27;;;10.73;;
1993;SDS011;998;49.906;10.908;2023-03-01T08:36:15;24.77;;;12.53;;
1993;SDS011;998;49.906;10.908;2023-03-01T08:38:44;20.30;;;12.43;;
1993;SDS011;998;49.906;10.908;2023-03-01T08:41:12;22.50;;;12.13;;
1993;SDS011;998;49.906;10.908;2023-03-01T08:43:40;22.50;;;12.73;;
1993;SDS011;998;49.906;10.908;2023-03-01T08:46:07;17.83;;;11.10;;
1993;SDS011;998;49.906;10.908;2023-03-01T08:48:35;21.23;;;11.83;;
1993;SDS011;998;49.906;10.908;2023-03-01T08:51:11;22.10;;;12.37;;
1993;SDS011;998;49.906;10.908;2023-03-01T08:53:41;24.83;;;12.37;;
1993;SDS011;998;49.906;10.908;2023-03-01T08:56:10;19.23;;;11.07;;
1993;SDS011;998;49.906;10.908;2023-03-01T08:58:38;20.93;;;11.50;;
1993;SDS011;998;49.906;10.908;2023-03-01T09:01:09;19.87;;;11.63;;
1993;SDS011;998;49.906;10.908;2023-03-01T09:03:36;16.00;;;9.77;;
1993;SDS011;998;49.906;10.908;2023-03-01T09:06:04;17.30;;;10.37;;
1993;SDS011;998;49.906;10.908;2023-03-01T09:08:34;32.37;;;11.90;;
1993;SDS011;998;49.906;10.908;2023-03-01T09:11:02;25.63;;;10.47;;
1993;SDS011;998;49.906;10.908;2023-03-01T09:13:31;17.03;;;10.20;;
1993;SDS011;998;49.906;10.908;2023-03-01T09:15:58;17.77;;;10.63;;
1993;SDS011;998;49.906;10.908;2023-03-01T09:18:26;19.87;;;11.87;;
1993;SDS011;998;49.906;10.908;2023-03-01T09:21:00;19.87;;;10.27;;
1993;SDS011;998;49.906;10.908;2023-03-01T09:23:32;19.93;;;11.30;;
1993;SDS011;998;49.906;10.908;2023-03-01T09:25:59;20.87;;;11.20;;
1993;SDS011;998;49.906;10.908;2023-03-01T09:28:26;17.87;;;11.50;;
1993;SDS011;998;49.906;10.908;2023-03-01T09:30:57;20.23;;;12.10;;
1993;SDS011;998;49.906;10.908;2023-03-01T09:33:24;22.80;;;11.40;;
1993;SDS011;998;49.906;10.908;2023-03-01T09:35:55;17.27;;;9.10;;
1993;SDS011;998;49.906;10.908;2023-03-01T09:38:22;17.83;;;10.20;;
1993;SDS011;998;49.906;10.908;2023-03-01T09:40:49;16.23;;;10.70;;
1993;SDS011;998;49.906;10.908;2023-03-01T09:43:18;18.63;;;11.30;;
1993;SDS011;998;49.906;10.908;2023-03-01T09:45:50;21.23;;;10.53;;
1993;SDS011;998;49.906;10.908;2023-03-01T09:48:24;16.07;;;9.47;;
1993;SDS011;998;49.906;10.908;2023-03-01T09:50:53;21.53;;;11.20;;
1993;SDS011;998;49.906;10.908;2023-03-01T09:53:20;20.10;;;12.17;;
1993;SDS011;998;49.906;10.908;2023-03-01T09:55:50;19.73;;;10.00;;
1993;SDS011;998;49.906;10.908;2023-03-01T09:58:29;18.70;;;11.90;;
1993;SDS011;998;49.906;10.908;2023-03-01T10:01:04;18.03;;;10.57;;
1993;SDS011;998;49.906;10.908;2023-03-01T10:03:43;19.57;;;10.97;;
1993;SDS011;998;49.906;10.908;2023-03-01T10:06:20;17.80;;;10.20;;
1993;SDS011;998;49.906;10.908;2023-03-01T10:08:50;23.10;;;12.17;;
1993;SDS011;998;49.906;10.908;2023-03-01T10:11:22;17.60;;;12.40;;
1993;SDS011;998;49.906;10.908;2023-03-01T10:13:54;19.33;;;11.10;;
1993;SDS011;998;49.906;10.908;2023-03-01T10:16:28;24.00;;;12.23;;
1993;SDS011;998;49.906;10.908;2023-03-01T10:19:01;17.90;;;10.83;;
1993;SDS011;998;49.906;10.908;2023-03-01T10:21:30;17.87;;;10.67;;
1993;SDS011;998;49.906;10.908;2023-03-01T10:24:08;20.30;;;12.10;;
1993;SDS011;998;49.906;10.908;2023-03-01T10:26:44;20.47;;;11.73;;
1993;SDS011;998;49.906;10.908;2023-03-01T10:29:18;18.23;;;11.27;;
1993;SDS011;998;49.906;10.908;2023-03-01T10:31:52;19.77;;;9.93;;
1993;SDS011;998;49.906;10.908;2023-03-01T10:34:21;17.33;;;9.50;;
1993;SDS011;998;49.906;10.908;2023-03-01T10:36:55;20.13;;;11.80;;
1993;SDS011;998;49.906;10.908;2023-03-01T10:39:24;22.40;;;10.70;;
1993;SDS011;998;49.906;10.908;2023-03-01T10:41:57;21.87;;;10.97;;
1993;SDS011;998;49.906;10.908;2023-03-01T10:44:38;15.13;;;9.63;;
1993;SDS011;998;49.906;10.908;2023-03-01T10:47:19;19.00;;;11.00;;
1993;SDS011;998;49.906;10.908;2023-03-01T10:49:51;19.27;;;10.33;;
1993;SDS011;998;49.906;10.908;2023-03-01T10:52:23;21.00;;;10.73;;
1993;SDS011;998;49.906;10.908;2023-03-01T10:54:54;15.40;;;10.27;;
1993;SDS011;998;49.906;10.908;2023-03-01T10:57:28;22.23;;;10.60;;
1993;SDS011;998;49.906;10.908;2023-03-01T11:00:10;18.60;;;10.67;;
1993;SDS011;998;49.906;10.908;2023-03-01T11:02:45;18.47;;;10.50;;
1993;SDS011;998;49.906;10.908;2023-03-01T11:05:16;21.00;;;11.87;;
1993;SDS011;998;49.906;10.908;2023-03-01T11:07:49;20.80;;;11.47;;
1993;SDS011;998;49.906;10.908;2023-03-01T11:10:18;20.73;;;11.53;;
1993;SDS011;998;49.906;10.908;2023-03-01T11:12:47;20.40;;;11.67;;
1993;SDS011;998;49.906;10.908;2023-03-01T11:15:21;19.20;;;12.30;;
1993;SDS011;998;49.906;10.908;2023-03-01T11:17:52;19.07;;;11.60;;
1993;SDS011;998;49.906;10.908;2023-03-01T11:20:24;26.10;;;14.70;;
1993;SDS011;998;49.906;10.908;2023-03-01T11:22:53;19.27;;;12.87;;
1993;SDS011;998;49.906;10.908;2023-03-01T11:25:24;18.77;;;13.87;;
1993;SDS011;998;49.906;10.908;2023-03-01T11:27:53;23.30;;;12.10;;
1993;SDS011;998;49.906;10.908;2023-03-01T11:30:22;23.53;;;15.37;;
1993;SDS011;998;49.906;10.908;2023-03-01T11:32:59;17.37;;;12.90;;
1993;SDS011;998;49.906;10.908;2023-03-01T11:35:35;19.00;;;13.83;;
1993;SDS011;998;49.906;10.908;2023-03-01T11:38:12;21.90;;;15.00;;
1993;SDS011;998;49.906;10.908;2023-03-01T11:40:45;19.93;;;13.77;;
1993;SDS011;998;49.906;10.908;2023-03-01T11:43:19;16.97;;;12.10;;
1993;SDS011;998;49.906;10.908;2023-03-01T11:48:56;20.07;;;12.77;;
1993;SDS011;998;49.906;10.908;2023-03-01T11:51:38;20.47;;;13.80;;
1993;SDS011;998;49.906;10.908;2023-03-01T11:54:13;16.13;;;12.87;;
1993;SDS011;998;49.906;10.908;2023-03-01T11:56:50;18.00;;;14.57;;
1993;SDS011;998;49.906;10.908;2023-03-01T11:59:28;15.23;;;11.60;;
1993;SDS011;998;49.906;10.908;2023-03-01T12:02:15;20.80;;;13.57;;
1993;SDS011;998;49.906;10.908;2023-03-01T12:08:13;16.60;;;12.50;;
1993;SDS011;998;49.906;10.908;2023-03-01T12:10:47;18.37;;;14.03;;
1993;SDS011;998;49.906;10.908;2023-03-01T12:13:26;20.50;;;13.57;;
1993;SDS011;998;49.906;10.908;2023-03-01T12:16:26;16.93;;;13.70;;
1993;SDS011;998;49.906;10.908;2023-03-01T12:19:08;21.23;;;14.53;;
1993;SDS011;998;49.906;10.908;2023-03-01T12:21:53;19.00;;;13.73;;
1993;SDS011;998;49.906;10.908;2023-03-01T12:27:34;16.80;;;12.10;;
1993;SDS011;998;49.906;10.908;2023-03-01T12:33:02;18.37;;;12.53;;
1993;SDS011;998;49.906;10.908;2023-03-01T12:38:40;17.20;;;13.37;;
1993;SDS011;998;49.906;10.908;2023-03-01T12:44:12;18.20;;;13.37;;
1993;SDS011;998;49.906;10.908;2023-03-01T12:46:57;14.10;;;11.07;;
1993;SDS011;998;49.906;10.908;2023-03-01T12:49:37;18.90;;;13.60;;
1993;SDS011;998;49.906;10.908;2023-03-01T12:52:10;17.60;;;13.17;;
1993;SDS011;998;49.906;10.908;2023-03-01T12:54:44;18.77;;;11.50;;
1993;SDS011;998;49.906;10.908;2023-03-01T12:57:15;22.20;;;13.07;;
1993;SDS011;998;49.906;10.908;2023-03-01T12:59:51;14.10;;;12.07;;
1993;SDS011;998;49.906;10.908;2023-03-01T13:02:30;16.13;;;12.17;;
1993;SDS011;998;49.906;10.908;2023-03-01T13:05:06;16.50;;;12.00;;
1993;SDS011;998;49.906;10.908;2023-03-01T13:07:48;14.37;;;12.00;;
1993;SDS011;998;49.906;10.908;2023-03-01T13:10:23;16.50;;;12.30;;
1993;SDS011;998;49.906;10.908;2023-03-01T13:13:01;17.63;;;12.80;;
1993;SDS011;998;49.906;10.908;2023-03-01T13:15:39;14.70;;;11.53;;
1993;SDS011;998;49.906;10.908;2023-03-01T13:20:56;16.27;;;12.47;;
1993;SDS011;998;49.906;10.908;2023-03-01T13:23:26;15.47;;;12.60;;
1993;SDS011;998;49.906;10.908;2023-03-01T13:26:04;13.23;;;11.50;;
1993;SDS011;998;49.906;10.908;2023-03-01T13:28:38;14.20;;;11.20;;
1993;SDS011;998;49.906;10.908;2023-03-01T13:37:36;13.33;;;10.97;;
1993;SDS011;998;49.906;10.908;2023-03-01T13:40:07;13.30;;;10.00;;
1993;SDS011;998;49.906;10.908;2023-03-01T13:43:33;14.40;;;11.17;;
1993;SDS011;998;49.906;10.908;2023-03-01T13:46:02;13.17;;;10.27;;
1993;SDS011;998;49.906;10.908;2023-03-01T13:48:36;13.47;;;10.73;;
1993;SDS011;998;49.906;10.908;2023-03-01T13:51:06;12.63;;;9.40;;
1993;SDS011;998;49.906;10.908;2023-03-01T13:53:35;13.27;;;10.63;;
1993;SDS011;998;49.906;10.908;2023-03-01T13:56:08;12.40;;;9.03;;
1993;SDS011;998;49.906;10.908;2023-03-01T13:58:46;12.63;;;9.57;;
1993;SDS011;998;49.906;10.908;2023-03-01T14:01:23;15.47;;;9.33;;
1993;SDS011;998;49.906;10.908;2023-03-01T14:03:52;16.10;;;9.83;;
1993;SDS011;998;49.906;10.908;2023-03-01T14:06:20;16.30;;;10.20;;
1993;SDS011;998;49.906;10.908;2023-03-01T14:08:49;16.83;;;12.80;;
1993;SDS011;998;49.906;10.908;2023-03-01T14:11:23;18.27;;;14.03;;
1993;SDS011;998;49.906;10.908;2023-03-01T14:20:12;14.60;;;11.80;;
1993;SDS011;998;49.906;10.908;2023-03-01T14:22:42;16.30;;;9.97;;
1993;SDS011;998;49.906;10.908;2023-03-01T14:25:20;18.40;;;11.43;;
1993;SDS011;998;49.906;10.908;2023-03-01T14:27:58;13.37;;;10.10;;
1993;SDS011;998;49.906;10.908;2023-03-01T14:30:32;17.60;;;9.00;;
1993;SDS011;998;49.906;10.908;2023-03-01T14:33:03;18.03;;;11.07;;
1993;SDS011;998;49.906;10.908;2023-03-01T14:35:32;17.27;;;10.63;;
1993;SDS011;998;49.906;10.908;2023-03-01T14:38:01;10.60;;;9.03;;
1993;SDS011;998;49.906;10.908;2023-03-01T14:40:28;11.40;;;10.00;;
1993;SDS011;998;49.906;10.908;2023-03-01T14:42:57;13.77;;;10.37;;
1993;SDS011;998;49.906;10.908;2023-03-01T14:45:27;16.77;;;11.10;;
1993;SDS011;998;49.906;10.908;2023-03-01T14:47:58;15.73;;;11.23;;
1993;SDS011;998;49.906;10.908;2023-03-01T14:50:27;11.50;;;8.63;;
1993;SDS011;998;49.906;10.908;2023-03-01T14:52:57;13.27;;;9.23;;
1993;SDS011;998;49.906;10.908;2023-03-01T14:55:26;9.87;;;8.27;;
1993;SDS011;998;49.906;10.908;2023-03-01T14:57:55;15.00;;;9.37;;
1993;SDS011;998;49.906;10.908;2023-03-01T15:00:24;11.80;;;8.50;;
1993;SDS011;998;49.906;10.908;2023-03-01T15:02:53;12.87;;;8.90;;
1993;SDS011;998;49.906;10.908;2023-03-01T15:05:24;11.27;;;8.20;;
1993;SDS011;998;49.906;10.908;2023-03-01T15:07:54;16.13;;;9.20;;
1993;SDS011;998;49.906;10.908;2023-03-01T15:10:24;12.83;;;9.30;;
1993;SDS011;998;49.906;10.908;2023-03-01T15:12:52;14.40;;;8.90;;
1993;SDS011;998;49.906;10.908;2023-03-01T15:18:05;17.43;;;9.40;;
1993;SDS011;998;49.906;10.908;2023-03-01T15:20:42;13.23;;;8.27;;
1993;SDS011;998;49.906;10.908;2023-03-01T15:23:16;13.10;;;9.80;;
1993;SDS011;998;49.906;10.908;2023-03-01T15:25:47;17.57;;;10.20;;
1993;SDS011;998;49.906;10.908;2023-03-01T15:28:22;15.53;;;8.87;;
1993;SDS011;998;49.906;10.908;2023-03-01T15:30:53;12.97;;;9.80;;
1993;SDS011;998;49.906;10.908;2023-03-01T15:33:28;13.90;;;9.53;;
1993;SDS011;998;49.906;10.908;2023-03-01T15:36:03;13.10;;;9.13;;
1993;SDS011;998;49.906;10.908;2023-03-01T15:38:58;14.97;;;9.03;;
1993;SDS011;998;49.906;10.908;2023-03-01T15:41:27;13.83;;;9.83;;
1993;SDS011;998;49.906;10.908;2023-03-01T15:43:57;13.33;;;9.07;;
1993;SDS011;998;49.906;10.908;2023-03-01T15:46:26;13.73;;;8.97;;
1993;SDS011;998;49.906;10.908;2023-03-01T15:48:57;14.30;;;10.17;;
1993;SDS011;998;49.906;10.908;2023-03-01T15:51:32;12.90;;;9.70;;